Time;durP1;ratioP1;P1;durP2;ratioP2;P2;SDS_P1;SDS_P2;PMS_P1;PMS_P2;Temp;Humidity;BMP_temperature;BMP_pressure;BME280_temperature;BME280_humidity;BME280_pressure;Samples;Min_cycle;Max_cycle;Signal;HPM_P1;HPM_P2
2021/04/30 00:01:43;;;;;;;0.73;0.73;;;21.50;48.10;;;;;;5091739;28;20031;-39
2021/04/30 00:04:09;;;;;;;0.85;0.80;;;21.60;47.90;;;;;;5112021;28;20473;-39
2021/04/30 00:06:34;;;;;;;1.00;0.90;;;21.70;47.70;;;;;;5109119;28;20069;-40
2021/04/30 00:09:00;;;;;;;0.93;0.93;;;21.70;47.60;;;;;;5107809;28;20020;-40
2021/04/30 00:11:25;;;;;;;0.80;0.80;;;21.70;47.60;;;;;;5107002;28;20020;-40
2021/04/30 00:13:51;;;;;;;1.38;1.15;;;21.70;47.60;;;;;;5112572;28;20103;-40
2021/04/30 00:16:17;;;;;;;0.93;0.93;;;21.70;47.70;;;;;;5115999;28;20061;-40
2021/04/30 00:18:42;;;;;;;0.70;0.70;;;21.80;48.20;;;;;;5112914;28;20043;-41
2021/04/30 00:21:08;;;;;;;0.98;0.98;;;21.80;47.50;;;;;;5113047;28;20024;-40
2021/04/30 00:23:34;;;;;;;0.90;0.90;;;21.80;47.50;;;;;;5111384;28;20027;-40
2021/04/30 00:26:01;;;;;;;0.82;0.82;;;21.80;47.50;;;;;;5113283;28;20546;-41
2021/04/30 00:28:27;;;;;;;1.00;1.00;;;21.80;47.50;;;;;;5114044;28;20076;-41
2021/04/30 00:30:53;;;;;;;1.00;1.00;;;21.80;47.50;;;;;;5115182;28;20435;-40
2021/04/30 00:33:19;;;;;;;1.00;0.90;;;21.80;47.30;;;;;;5111330;28;20028;-40
2021/04/30 00:35:45;;;;;;;0.63;0.63;;;21.80;47.20;;;;;;5110731;28;20031;-41
2021/04/30 00:38:10;;;;;;;0.98;0.98;;;21.80;47.30;;;;;;5112431;28;20027;-40
2021/04/30 00:40:36;;;;;;;1.10;1.00;;;21.80;47.30;;;;;;5112303;28;20032;-40
2021/04/30 00:43:02;;;;;;;0.77;0.77;;;21.80;47.20;;;;;;5114101;28;20047;-38
2021/04/30 00:45:28;;;;;;;0.90;0.88;;;21.90;47.20;;;;;;5110633;28;20024;-40
2021/04/30 00:47:53;;;;;;;1.20;1.10;;;21.90;47.20;;;;;;5111719;28;20546;-42
2021/04/30 00:50:20;;;;;;;0.80;0.80;;;21.90;47.20;;;;;;5110901;28;20051;-40
2021/04/30 00:52:46;;;;;;;2.00;0.88;;;21.90;47.10;;;;;;5094650;28;20019;-40
2021/04/30 00:55:13;;;;;;;0.80;0.80;;;21.90;47.10;;;;;;5114704;28;20057;-41
2021/04/30 00:57:40;;;;;;;0.80;0.80;;;21.90;47.10;;;;;;5090949;28;20428;-41
2021/04/30 01:00:07;;;;;;;0.88;0.88;;;21.90;47.10;;;;;;5087374;28;20040;-40
2021/04/30 01:02:32;;;;;;;0.90;0.90;;;21.90;47.10;;;;;;5102093;28;20071;-40
2021/04/30 01:05:00;;;;;;;0.80;0.80;;;21.90;47.70;;;;;;5113748;28;20431;-40
2021/04/30 01:07:25;;;;;;;1.42;1.10;;;21.90;47.00;;;;;;5112968;28;20024;-40
2021/04/30 01:09:51;;;;;;;1.00;1.00;;;21.90;47.10;;;;;;5113827;28;20100;-39
2021/04/30 01:12:16;;;;;;;0.82;0.77;;;21.90;47.00;;;;;;5112462;28;20034;-40
2021/04/30 01:14:42;;;;;;;0.90;0.90;;;21.90;47.10;;;;;;5112439;28;20034;-40
2021/04/30 01:17:07;;;;;;;0.90;0.90;;;21.90;47.00;;;;;;5094670;28;20042;-38
2021/04/30 01:19:33;;;;;;;0.98;0.95;;;21.90;47.00;;;;;;5112334;28;20134;-40
2021/04/30 01:21:59;;;;;;;1.95;0.80;;;21.90;47.00;;;;;;5114312;28;20067;-39
2021/04/30 01:24:25;;;;;;;0.88;0.88;;;21.80;47.00;;;;;;5110745;28;20023;-41
2021/04/30 01:26:51;;;;;;;0.80;0.80;;;21.80;47.00;;;;;;5113303;27;20111;-39
2021/04/30 01:29:17;;;;;;;1.38;0.95;;;21.80;47.60;;;;;;5112132;28;20024;-41
2021/04/30 01:31:43;;;;;;;0.80;0.80;;;21.80;47.00;;;;;;5112444;28;20031;-39
2021/04/30 01:34:09;;;;;;;1.05;0.73;;;21.80;47.00;;;;;;5113605;28;20031;-40
2021/04/30 01:36:34;;;;;;;0.70;0.70;;;21.80;47.00;;;;;;5110794;28;20417;-41
2021/04/30 01:39:02;;;;;;;0.70;0.70;;;21.80;47.10;;;;;;5088055;28;20028;-41
2021/04/30 01:41:27;;;;;;;0.82;0.82;;;21.80;47.10;;;;;;5110130;28;20035;-39
2021/04/30 01:43:53;;;;;;;0.70;0.70;;;21.80;47.10;;;;;;5112326;28;20428;-40
2021/04/30 01:46:19;;;;;;;0.60;0.60;;;21.70;47.10;;;;;;5113718;28;20145;-40
2021/04/30 01:48:44;;;;;;;0.60;0.60;;;21.80;47.10;;;;;;5112433;28;20084;-37
2021/04/30 01:51:10;;;;;;;0.73;0.73;;;21.80;47.10;;;;;;5109617;28;20027;-40
2021/04/30 01:53:36;;;;;;;0.60;0.60;;;21.80;47.70;;;;;;5109211;28;20031;-40
2021/04/30 01:56:09;;;;;;;0.70;0.70;;;21.80;47.00;;;;;;5108933;28;20375;-41
2021/04/30 01:58:35;;;;;;;1.45;0.80;;;21.70;47.00;;;;;;5111584;28;20400;-40
2021/04/30 02:01:01;;;;;;;0.70;0.70;;;21.80;47.00;;;;;;5112596;28;20027;-40
2021/04/30 02:03:27;;;;;;;0.60;0.60;;;21.80;47.00;;;;;;5090619;28;20024;-39
2021/04/30 02:05:52;;;;;;;1.75;0.70;;;21.80;47.00;;;;;;5102589;28;20076;-43
2021/04/30 02:08:18;;;;;;;0.70;0.70;;;21.80;47.00;;;;;;5110508;28;20412;-40
2021/04/30 02:10:44;;;;;;;0.82;0.82;;;21.70;47.00;;;;;;5111832;28;20493;-40
2021/04/30 02:13:10;;;;;;;1.00;0.90;;;21.70;47.00;;;;;;5113791;28;20040;-40
2021/04/30 02:15:40;;;;;;;0.50;0.50;;;21.70;47.10;;;;;;5110805;28;20082;-43
2021/04/30 02:18:05;;;;;;;0.70;0.70;;;21.70;47.20;;;;;;5110446;28;20032;-38
2021/04/30 02:20:31;;;;;;;0.80;0.80;;;21.70;47.20;;;;;;5092421;28;20034;-40
2021/04/30 02:22:57;;;;;;;1.45;0.60;;;21.70;47.70;;;;;;5109503;28;20024;-40
2021/04/30 02:25:23;;;;;;;1.83;0.70;;;21.70;47.00;;;;;;5091624;28;20020;-40
2021/04/30 02:27:49;;;;;;;0.70;0.70;;;21.70;47.00;;;;;;5111071;28;20024;-41
2021/04/30 02:30:16;;;;;;;0.60;0.60;;;21.70;47.10;;;;;;5111240;28;20028;-39
2021/04/30 02:32:42;;;;;;;0.70;0.57;;;21.70;47.00;;;;;;5108373;28;20477;-41
2021/04/30 02:35:11;;;;;;;0.70;0.70;;;21.70;47.00;;;;;;5110064;28;20072;-40
2021/04/30 02:37:38;;;;;;;0.88;0.70;;;21.60;47.10;;;;;;5109895;28;20051;-39
2021/04/30 02:40:05;;;;;;;0.73;0.73;;;21.60;47.10;;;;;;5111777;28;20131;-41
2021/04/30 02:42:30;;;;;;;0.80;0.60;;;21.60;47.10;;;;;;5110567;28;20051;-40
2021/04/30 02:44:56;;;;;;;0.65;0.65;;;21.60;47.20;;;;;;5108508;28;20524;-40
2021/04/30 02:47:29;;;;;;;0.60;0.60;;;21.50;47.20;;;;;;5108546;28;20015;-40
2021/04/30 02:49:55;;;;;;;1.50;0.80;;;21.60;47.20;;;;;;5108756;28;20028;-41
2021/04/30 02:52:21;;;;;;;0.73;0.73;;;21.60;47.10;;;;;;5111483;28;20027;-40
2021/04/30 02:54:46;;;;;;;0.65;0.65;;;21.60;47.10;;;;;;5111187;28;20039;-40
2021/04/30 02:57:12;;;;;;;0.65;0.55;;;21.60;47.10;;;;;;5110340;28;20027;-40
2021/04/30 02:59:38;;;;;;;1.15;0.80;;;21.60;47.20;;;;;;5108758;28;20032;-40
2021/04/30 03:02:04;;;;;;;0.70;0.70;;;21.50;47.10;;;;;;5110547;28;20039;-39
2021/04/30 03:04:29;;;;;;;0.70;0.70;;;21.50;47.10;;;;;;5110743;28;20098;-39
2021/04/30 03:06:55;;;;;;;0.90;0.90;;;21.50;47.20;;;;;;5111913;28;20024;-41
2021/04/30 03:09:21;;;;;;;0.70;0.70;;;21.50;47.20;;;;;;5110113;28;20076;-40
2021/04/30 03:11:46;;;;;;;0.60;0.57;;;21.50;47.10;;;;;;5110091;28;20047;-40
2021/04/30 03:14:12;;;;;;;0.60;0.60;;;21.50;47.30;;;;;;5110351;28;20077;-40
2021/04/30 03:16:37;;;;;;;0.60;0.60;;;21.50;47.80;;;;;;5107914;28;20032;-41
2021/04/30 03:19:04;;;;;;;0.65;0.65;;;21.50;47.20;;;;;;5110784;28;20143;-38
2021/04/30 03:21:29;;;;;;;0.80;0.80;;;21.60;47.30;;;;;;5089091;28;20028;-40
2021/04/30 03:23:55;;;;;;;0.70;0.70;;;21.50;47.30;;;;;;5101711;28;20030;-40
2021/04/30 03:26:20;;;;;;;0.73;0.73;;;21.50;47.30;;;;;;5091726;28;20085;-40
2021/04/30 03:28:46;;;;;;;0.60;0.60;;;21.50;47.30;;;;;;5108133;28;20019;-38
2021/04/30 03:31:11;;;;;;;0.75;0.60;;;21.50;47.30;;;;;;5112155;28;20028;-40
2021/04/30 03:33:38;;;;;;;0.85;0.85;;;21.50;47.80;;;;;;5109544;28;20080;-40
2021/04/30 03:36:04;;;;;;;0.60;0.60;;;21.50;47.20;;;;;;5107309;28;20118;-41
2021/04/30 03:38:30;;;;;;;0.50;0.50;;;21.50;47.20;;;;;;5108338;28;20044;-40
2021/04/30 03:40:55;;;;;;;0.60;0.60;;;21.60;47.20;;;;;;5108699;28;20024;-41
2021/04/30 03:43:21;;;;;;;0.60;0.57;;;21.60;47.20;;;;;;5108139;28;20058;-38
2021/04/30 03:45:50;;;;;;;0.60;0.60;;;21.50;47.10;;;;;;5110720;28;20072;-42
2021/04/30 03:48:17;;;;;;;0.93;0.88;;;21.60;47.20;;;;;;5108509;28;20494;-40
2021/04/30 03:50:42;;;;;;;0.57;0.57;;;21.60;47.10;;;;;;5107655;28;20031;-40
2021/04/30 03:53:08;;;;;;;0.60;0.60;;;21.60;47.10;;;;;;5109641;28;20043;-41
2021/04/30 03:55:33;;;;;;;0.80;0.80;;;21.60;47.80;;;;;;5109291;28;20027;-40
2021/04/30 03:57:59;;;;;;;0.60;0.45;;;21.50;47.70;;;;;;5111791;28;20024;-40
2021/04/30 04:00:24;;;;;;;0.77;0.70;;;21.50;47.80;;;;;;5108912;28;20115;-40
2021/04/30 04:02:50;;;;;;;0.88;0.88;;;21.50;47.20;;;;;;5107439;28;20057;-39
2021/04/30 04:05:16;;;;;;;0.68;0.60;;;21.50;47.20;;;;;;5108849;28;20078;-40
2021/04/30 04:07:42;;;;;;;0.50;0.50;;;21.50;47.20;;;;;;5090055;28;20030;-41
2021/04/30 04:10:08;;;;;;;0.55;0.55;;;21.50;47.20;;;;;;5111074;28;20023;-39
2021/04/30 04:12:33;;;;;;;0.70;0.70;;;21.50;47.10;;;;;;5108077;28;20489;-38
2021/04/30 04:14:59;;;;;;;0.65;0.65;;;21.50;47.10;;;;;;5106106;28;20027;-38
2021/04/30 04:17:25;;;;;;;0.70;0.70;;;21.60;47.20;;;;;;5107338;28;20083;-40
2021/04/30 04:19:50;;;;;;;0.75;0.60;;;21.60;47.10;;;;;;5090153;28;20085;-41
2021/04/30 04:22:16;;;;;;;0.50;0.50;;;21.50;47.20;;;;;;5111901;28;20024;-40
2021/04/30 04:24:42;;;;;;;0.52;0.52;;;21.50;47.20;;;;;;5109008;28;20077;-41
2021/04/30 04:27:08;;;;;;;0.50;0.50;;;21.50;47.20;;;;;;5085904;28;20028;-40
2021/04/30 04:29:34;;;;;;;0.60;0.60;;;21.50;47.20;;;;;;5103939;28;20447;-41
2021/04/30 04:32:00;;;;;;;0.77;0.77;;;21.50;47.30;;;;;;5109442;28;20016;-40
2021/04/30 04:34:25;;;;;;;0.50;0.50;;;21.40;47.10;;;;;;5109379;28;20031;-39
2021/04/30 04:36:51;;;;;;;0.70;0.60;;;21.50;47.20;;;;;;5107652;28;20123;-40
2021/04/30 04:39:16;;;;;;;0.60;0.60;;;21.50;47.30;;;;;;5107484;28;20124;-40
2021/04/30 04:41:42;;;;;;;0.70;0.70;;;21.40;47.30;;;;;;5089770;28;20020;-40
2021/04/30 04:44:08;;;;;;;0.50;0.50;;;21.50;47.30;;;;;;5108431;28;20382;-41
2021/04/30 04:46:33;;;;;;;0.60;0.60;;;21.50;47.30;;;;;;5109582;28;20019;-40
2021/04/30 04:48:59;;;;;;;0.40;0.40;;;21.40;47.20;;;;;;5110141;28;20513;-41
2021/04/30 04:51:24;;;;;;;0.50;0.50;;;21.50;47.30;;;;;;5085527;28;20028;-41
2021/04/30 04:53:50;;;;;;;0.60;0.60;;;21.40;47.20;;;;;;5108329;28;20026;-41
2021/04/30 04:56:16;;;;;;;0.52;0.52;;;21.50;47.20;;;;;;5108082;28;20027;-41
2021/04/30 04:58:42;;;;;;;0.60;0.60;;;21.40;47.90;;;;;;5109765;28;20077;-39
2021/04/30 05:01:07;;;;;;;0.50;0.50;;;21.50;47.20;;;;;;5103482;28;20032;-42
2021/04/30 05:03:34;;;;;;;0.95;0.60;;;21.40;47.20;;;;;;5086424;28;20028;-39
2021/04/30 05:05:59;;;;;;;0.90;0.50;;;21.40;47.30;;;;;;5109160;28;20027;-40
2021/04/30 05:08:25;;;;;;;0.60;0.55;;;21.40;47.90;;;;;;5105145;28;20140;-41
2021/04/30 05:10:51;;;;;;;0.50;0.50;;;21.40;47.30;;;;;;5107877;28;20386;-41
2021/04/30 05:13:16;;;;;;;0.60;0.60;;;21.40;47.20;;;;;;5114228;28;20019;-39
2021/04/30 05:15:42;;;;;;;0.50;0.50;;;21.40;47.20;;;;;;5112708;28;20032;-40
2021/04/30 05:18:07;;;;;;;0.60;0.50;;;21.40;47.30;;;;;;5109854;28;20520;-40
2021/04/30 05:20:33;;;;;;;0.45;0.45;;;21.40;47.40;;;;;;5110601;28;20031;-39
2021/04/30 05:23:00;;;;;;;0.50;0.50;;;21.40;47.30;;;;;;5110726;28;20026;-42
2021/04/30 05:25:25;;;;;;;0.70;0.70;;;21.40;47.30;;;;;;5094335;28;20031;-39
2021/04/30 05:27:51;;;;;;;0.60;0.60;;;21.40;47.30;;;;;;5090810;28;20039;-43
2021/04/30 05:30:17;;;;;;;0.50;0.50;;;21.40;47.30;;;;;;5089900;28;20063;-40
2021/04/30 05:32:42;;;;;;;0.40;0.40;;;21.40;47.30;;;;;;5109400;28;20020;-43
2021/04/30 05:35:09;;;;;;;0.73;0.73;;;21.40;47.30;;;;;;5091519;28;20402;-40
2021/04/30 05:37:34;;;;;;;0.47;0.47;;;21.40;47.20;;;;;;5111498;28;20047;-40
2021/04/30 05:40:00;;;;;;;0.50;0.50;;;21.40;47.30;;;;;;5111891;28;20050;-41
2021/04/30 05:42:26;;;;;;;0.50;0.50;;;21.40;47.20;;;;;;5109186;28;20030;-41
2021/04/30 05:44:53;;;;;;;0.73;0.70;;;21.40;47.20;;;;;;5086710;28;20035;-41
2021/04/30 05:47:18;;;;;;;0.70;0.70;;;21.40;47.20;;;;;;5102395;28;20031;-40
2021/04/30 05:49:44;;;;;;;0.63;0.63;;;21.40;47.30;;;;;;5107097;28;20084;-42
2021/04/30 05:52:10;;;;;;;0.60;0.60;;;21.30;47.20;;;;;;5108227;28;20539;-37
2021/04/30 05:54:35;;;;;;;0.52;0.52;;;21.30;47.20;;;;;;5090870;28;20404;-42
2021/04/30 05:57:01;;;;;;;0.60;0.60;;;21.30;47.30;;;;;;5106647;28;20104;-40
2021/04/30 05:59:26;;;;;;;0.50;0.50;;;21.30;47.30;;;;;;5107955;28;20036;-40
2021/04/30 06:01:52;;;;;;;0.50;0.50;;;21.30;47.30;;;;;;5087394;28;20072;-40
2021/04/30 06:04:18;;;;;;;0.50;0.50;;;21.30;47.30;;;;;;5106937;28;20023;-39
2021/04/30 06:06:50;;;;;;;0.50;0.50;;;21.30;47.30;;;;;;5106310;28;20031;-40
2021/04/30 06:09:16;;;;;;;0.60;0.60;;;21.30;47.30;;;;;;5107278;28;20078;-40
2021/04/30 06:11:42;;;;;;;0.50;0.50;;;21.30;47.30;;;;;;5104321;28;20059;-40
2021/04/30 06:14:07;;;;;;;0.77;0.77;;;21.30;47.30;;;;;;5107267;28;20028;-39
2021/04/30 06:16:33;;;;;;;0.40;0.40;;;21.30;47.30;;;;;;5104552;28;20398;-41
2021/04/30 06:18:58;;;;;;;0.80;0.65;;;21.30;47.30;;;;;;5108311;28;20043;-39
2021/04/30 06:21:24;;;;;;;0.75;0.75;;;21.30;47.30;;;;;;5088373;28;20035;-40
2021/04/30 06:23:50;;;;;;;1.02;0.45;;;21.30;47.30;;;;;;5108324;28;20398;-36
2021/04/30 06:26:15;;;;;;;0.68;0.68;;;21.30;47.20;;;;;;5106510;28;20103;-37
2021/04/30 06:28:41;;;;;;;0.68;0.60;;;21.20;47.40;;;;;;5108678;28;20048;-38
2021/04/30 06:31:06;;;;;;;0.82;0.70;;;21.20;47.50;;;;;;5108616;28;20027;-39
2021/04/30 06:33:32;;;;;;;0.70;0.70;;;21.20;47.40;;;;;;5106311;28;20023;-39
2021/04/30 06:35:59;;;;;;;0.60;0.60;;;21.20;47.60;;;;;;5106298;28;20062;-41
2021/04/30 06:38:24;;;;;;;0.70;0.70;;;21.20;47.50;;;;;;5102971;28;20069;-38
2021/04/30 06:40:50;;;;;;;0.60;0.60;;;21.20;47.50;;;;;;5079493;28;20055;-39
2021/04/30 06:43:15;;;;;;;0.52;0.40;;;21.30;47.50;;;;;;5107656;28;20024;-40
2021/04/30 06:45:41;;;;;;;1.05;0.55;;;21.30;47.40;;;;;;5105444;28;20038;-37
2021/04/30 06:48:07;;;;;;;0.50;0.50;;;21.30;47.40;;;;;;5105292;28;20024;-40
2021/04/30 06:50:32;;;;;;;0.30;0.30;;;21.30;47.40;;;;;;5105551;28;20027;-40
2021/04/30 06:52:58;;;;;;;0.50;0.45;;;21.30;47.40;;;;;;5106581;28;20110;-40
2021/04/30 06:55:24;;;;;;;0.50;0.50;;;21.30;48.00;;;;;;5078918;28;20027;-42
2021/04/30 06:57:49;;;;;;;0.40;0.40;;;21.30;47.30;;;;;;5107868;28;20016;-38
2021/04/30 07:00:16;;;;;;;0.50;0.40;;;21.30;47.30;;;;;;5106078;28;20073;-40
2021/04/30 07:02:45;;;;;;;0.70;0.70;;;21.30;47.30;;;;;;5087491;28;20061;-40
2021/04/30 07:05:11;;;;;;;0.50;0.50;;;21.30;47.40;;;;;;5107712;28;20027;-40
2021/04/30 07:07:37;;;;;;;2.45;0.50;;;21.30;47.30;;;;;;5110375;28;20016;-37
2021/04/30 07:10:04;;;;;;;1.27;0.52;;;21.30;48.10;;;;;;5102820;28;20039;-39
2021/04/30 07:12:29;;;;;;;1.40;0.57;;;21.30;47.80;;;;;;5089129;28;20028;-41
2021/04/30 07:14:55;;;;;;;0.68;0.68;;;21.30;47.90;;;;;;5090814;28;20035;-38
2021/04/30 07:17:20;;;;;;;2.35;0.88;;;21.30;47.80;;;;;;5088546;28;20055;-40
2021/04/30 07:19:46;;;;;;;1.35;0.88;;;21.30;47.70;;;;;;5087586;28;20158;-41
2021/04/30 07:22:14;;;;;;;0.65;0.65;;;21.20;47.60;;;;;;5089026;28;20032;-40
2021/04/30 07:24:40;;;;;;;2.20;0.80;;;21.20;47.40;;;;;;5089883;28;20510;-41
2021/04/30 07:27:06;;;;;;;0.80;0.80;;;21.30;47.40;;;;;;5088626;28;20081;-41
2021/04/30 07:29:31;;;;;;;0.90;0.90;;;21.20;47.10;;;;;;5068076;28;20063;-49
2021/04/30 07:31:59;;;;;;;1.13;1.02;;;21.20;47.30;;;;;;5087681;28;20173;-38
2021/04/30 07:34:24;;;;;;;1.17;1.08;;;21.30;47.20;;;;;;5087474;28;20035;-40
2021/04/30 07:36:50;;;;;;;1.20;1.10;;;21.30;47.90;;;;;;5085804;28;20398;-41
2021/04/30 07:39:16;;;;;;;1.10;1.10;;;21.20;47.30;;;;;;5084882;28;20113;-41
2021/04/30 07:41:41;;;;;;;0.98;0.98;;;21.20;47.10;;;;;;5086326;28;20111;-40
2021/04/30 07:44:07;;;;;;;1.42;1.33;;;21.20;47.40;;;;;;5087666;28;20092;-41
2021/04/30 07:46:32;;;;;;;1.85;1.00;;;21.20;47.20;;;;;;5087517;28;20059;-41
2021/04/30 07:48:58;;;;;;;1.27;1.27;;;21.20;47.60;;;;;;5087428;28;20032;-40
2021/04/30 07:51:23;;;;;;;2.78;1.20;;;21.20;49.00;;;;;;5087430;28;20646;-40
2021/04/30 07:53:49;;;;;;;1.23;1.13;;;21.20;48.10;;;;;;5071486;28;20102;-40
2021/04/30 07:56:14;;;;;;;1.30;1.20;;;21.20;48.10;;;;;;5087043;28;20034;-40
2021/04/30 07:58:40;;;;;;;1.05;0.95;;;21.20;47.20;;;;;;5088641;28;20109;-40
2021/04/30 08:01:06;;;;;;;1.20;1.05;;;21.10;47.00;;;;;;5089128;28;20036;-40
2021/04/30 08:03:31;;;;;;;3.45;1.20;;;21.20;48.30;;;;;;5086016;28;20042;-40
2021/04/30 08:05:57;;;;;;;3.38;1.45;;;21.20;47.80;;;;;;5074082;28;20028;-40
2021/04/30 08:08:22;;;;;;;1.23;1.08;;;21.20;47.70;;;;;;5077342;28;20047;-41
2021/04/30 08:10:48;;;;;;;1.67;0.95;;;21.20;46.90;;;;;;5077134;28;20076;-42
2021/04/30 08:13:14;;;;;;;4.93;1.20;;;21.20;47.10;;;;;;5077327;28;20514;-40
2021/04/30 08:15:39;;;;;;;1.92;1.08;;;21.10;46.90;;;;;;5074936;28;20064;-39
2021/04/30 08:18:05;;;;;;;2.63;1.00;;;21.20;46.60;;;;;;5076045;28;20024;-40
2021/04/30 08:20:31;;;;;;;1.42;1.10;;;21.30;46.10;;;;;;5056522;28;20036;-37
2021/04/30 08:22:57;;;;;;;2.08;1.90;;;21.40;45.90;;;;;;5073098;28;20496;-40
2021/04/30 08:25:22;;;;;;;1.30;1.20;;;21.40;45.60;;;;;;5075220;28;20040;-40
2021/04/30 08:27:48;;;;;;;1.20;1.10;;;21.50;45.50;;;;;;5075871;28;20040;-46
2021/04/30 08:30:14;;;;;;;1.20;1.10;;;21.50;45.40;;;;;;5076289;28;20028;-42
2021/04/30 08:32:40;;;;;;;1.40;1.20;;;21.50;45.10;;;;;;5073980;28;20035;-40
2021/04/30 08:35:06;;;;;;;0.88;0.88;;;21.50;45.30;;;;;;5079550;28;20032;-40
2021/04/30 08:37:32;;;;;;;1.20;1.10;;;21.50;45.00;;;;;;5078574;28;20052;-45
2021/04/30 08:40:00;;;;;;;1.55;0.80;;;21.50;45.40;;;;;;5060998;28;20136;-44
2021/04/30 08:42:27;;;;;;;0.80;0.80;;;21.60;45.70;;;;;;5079417;28;20020;-44
2021/04/30 08:44:52;;;;;;;1.38;1.10;;;21.60;45.60;;;;;;5079893;28;20036;-43
2021/04/30 08:47:18;;;;;;;0.70;0.70;;;21.60;46.60;;;;;;5061238;28;20028;-41
2021/04/30 08:49:45;;;;;;;0.82;0.80;;;21.70;46.30;;;;;;5069059;28;20653;-41
2021/04/30 08:52:11;;;;;;;1.00;0.80;;;21.70;45.80;;;;;;5082576;28;20110;-41
2021/04/30 08:54:37;;;;;;;1.00;0.90;;;21.80;45.90;;;;;;5083192;28;20041;-52
2021/04/30 08:57:05;;;;;;;5.22;0.80;;;21.80;46.90;;;;;;5080975;28;20035;-42
2021/04/30 08:59:31;;;;;;;2.45;0.82;;;21.80;47.30;;;;;;5079650;28;20067;-42
2021/04/30 09:01:57;;;;;;;1.25;0.88;;;21.80;47.50;;;;;;5043245;28;20028;-46
2021/04/30 09:04:23;;;;;;;0.70;0.70;;;21.80;47.10;;;;;;5061868;28;20783;-41
2021/04/30 09:06:49;;;;;;;1.65;0.80;;;21.90;46.90;;;;;;5078255;28;20092;-41
2021/04/30 09:09:17;;;;;;;3.00;1.13;;;21.90;46.60;;;;;;5074227;28;20035;-40
2021/04/30 09:11:52;;;;;;;0.73;0.73;;;21.90;47.00;;;;;;5079110;28;20059;-39
2021/04/30 09:14:24;;;;;;;0.70;0.70;;;22.00;46.70;;;;;;5062880;28;20031;-41
2021/04/30 09:17:15;;;;;;;1.25;0.90;;;22.10;46.60;;;;;;5076485;28;20039;-37
2021/04/30 09:19:48;;;;;;;0.65;0.63;;;22.10;46.60;;;;;;5077600;28;20110;-40
2021/04/30 09:22:29;;;;;;;4.63;0.73;;;22.00;46.40;;;;;;5079522;28;20019;-41
2021/04/30 09:24:55;;;;;;;1.00;0.90;;;22.00;45.80;;;;;;5078112;28;20517;-43
2021/04/30 09:27:46;;;;;;;1.17;0.68;;;22.10;46.40;;;;;;5087522;28;20063;-44
2021/04/30 09:30:28;;;;;;;0.80;0.75;;;22.10;46.40;;;;;;5084407;28;20044;-40
2021/04/30 09:33:09;;;;;;;1.10;0.90;;;22.20;46.10;;;;;;5096301;28;20105;-43
2021/04/30 09:35:42;;;;;;;0.70;0.70;;;22.20;45.90;;;;;;5089122;28;20032;-40
2021/04/30 09:38:36;;;;;;;1.85;0.73;;;22.30;45.70;;;;;;5074463;28;20512;-41
2021/04/30 09:41:02;;;;;;;0.73;0.70;;;22.40;45.80;;;;;;5097266;28;20091;-41
2021/04/30 09:43:42;;;;;;;0.80;0.80;;;22.50;45.50;;;;;;5095064;28;20085;-41
2021/04/30 09:46:34;;;;;;;1.05;0.90;;;22.50;45.70;;;;;;5094371;28;20406;-38
2021/04/30 09:49:08;;;;;;;3.80;0.60;;;22.40;45.50;;;;;;5079383;28;20040;-41
2021/04/30 09:51:39;;;;;;;0.90;0.60;;;22.40;45.60;;;;;;5079285;28;20055;-41
2021/04/30 09:54:24;;;;;;;1.05;0.70;;;22.50;45.80;;;;;;5095125;28;20043;-37
2021/04/30 09:57:17;;;;;;;1.10;0.73;;;22.50;45.40;;;;;;5092080;28;20118;-43
2021/04/30 09:59:45;;;;;;;0.55;0.55;;;22.50;45.40;;;;;;5096803;28;20182;-41
2021/04/30 10:02:17;;;;;;;0.60;0.60;;;22.60;45.30;;;;;;5076153;28;20493;-43
2021/04/30 10:04:48;;;;;;;0.80;0.80;;;22.60;45.90;;;;;;4723566;28;9999757;-42
2021/04/30 10:07:15;;;;;;;1.17;0.60;;;22.60;45.20;;;;;;5096551;28;20032;-40
2021/04/30 10:09:41;;;;;;;1.00;0.70;;;22.60;44.90;;;;;;5089001;28;20402;-41
2021/04/30 10:12:20;;;;;;;0.98;0.85;;;22.60;44.90;;;;;;5090825;28;20051;-40
2021/04/30 10:14:46;;;;;;;0.73;0.73;;;22.70;44.70;;;;;;5083020;28;20047;-40
2021/04/30 10:17:14;;;;;;;2.47;0.60;;;22.70;44.40;;;;;;5095890;28;20095;-40
2021/04/30 10:19:43;;;;;;;0.80;0.80;;;22.60;44.60;;;;;;5082337;28;20626;-43
2021/04/30 10:22:20;;;;;;;2.80;0.80;;;22.50;44.20;;;;;;5096249;28;20066;-42
2021/04/30 10:24:48;;;;;;;2.65;0.70;;;22.40;44.70;;;;;;5080345;28;20048;-39
2021/04/30 10:27:16;;;;;;;0.80;0.80;;;22.30;44.70;;;;;;5053761;28;20130;-44
2021/04/30 10:29:43;;;;;;;1.33;1.23;;;22.40;44.30;;;;;;5089244;28;20436;-41
2021/04/30 10:32:08;;;;;;;1.40;1.20;;;22.40;45.30;;;;;;5073312;28;20040;-44
2021/04/30 10:34:37;;;;;;;1.33;1.00;;;22.40;45.10;;;;;;5054759;28;20117;-44
2021/04/30 10:37:02;;;;;;;2.13;2.00;;;22.30;45.10;;;;;;5096096;27;20055;-42
2021/04/30 10:39:33;;;;;;;2.80;2.60;;;22.40;45.40;;;;;;5075724;28;20066;-42
2021/04/30 10:42:10;;;;;;;2.85;2.65;;;22.60;46.90;;;;;;5090010;28;20451;-40
2021/04/30 10:44:40;;;;;;;6.35;2.60;;;22.50;46.60;;;;;;5094725;28;20046;-41
2021/04/30 10:47:09;;;;;;;6.30;3.05;;;22.50;46.00;;;;;;5074940;28;20043;-40
2021/04/30 10:49:35;;;;;;;4.32;2.90;;;22.50;47.50;;;;;;5089203;28;20047;-40
2021/04/30 10:54:39;;;;;;;3.05;2.85;;;22.40;46.50;;;;;;5093815;28;20066;-41
2021/04/30 10:57:05;;;;;;;2.83;2.63;;;22.40;47.80;;;;;;5074353;28;20506;-38
2021/04/30 10:59:38;;;;;;;3.20;2.90;;;22.50;47.30;;;;;;5069111;28;20056;-41
2021/04/30 11:02:20;;;;;;;2.80;2.60;;;22.50;46.60;;;;;;5089487;28;20126;-40
2021/04/30 11:05:05;;;;;;;2.60;2.40;;;22.60;48.20;;;;;;5088167;28;20047;-37
2021/04/30 11:07:37;;;;;;;2.50;2.30;;;22.60;48.30;;;;;;5089904;28;20063;-40
2021/04/30 11:10:30;;;;;;;2.05;1.95;;;22.60;48.30;;;;;;5088681;28;20108;-40
2021/04/30 11:13:06;;;;;;;2.20;2.00;;;22.60;48.00;;;;;;5091161;28;20544;-40
2021/04/30 11:15:53;;;;;;;2.20;2.10;;;22.60;47.60;;;;;;5087695;28;20539;-39
2021/04/30 11:18:21;;;;;;;3.22;2.10;;;22.60;47.70;;;;;;5088454;28;20042;-40
2021/04/30 11:21:02;;;;;;;2.38;2.00;;;22.60;47.80;;;;;;5090234;28;20059;-41
2021/04/30 11:23:28;;;;;;;1.80;1.70;;;22.60;48.50;;;;;;5089572;28;20134;-41
2021/04/30 11:26:07;;;;;;;1.75;1.65;;;22.60;47.50;;;;;;5090654;28;20090;-41
2021/04/30 11:28:33;;;;;;;1.73;1.63;;;22.60;47.20;;;;;;5087002;28;20410;-44
2021/04/30 11:31:01;;;;;;;3.70;2.17;;;22.60;47.40;;;;;;5088989;28;20043;-41
2021/04/30 11:33:27;;;;;;;1.45;1.33;;;22.60;47.60;;;;;;5089506;28;20425;-42
2021/04/30 11:35:53;;;;;;;2.58;1.55;;;22.60;48.00;;;;;;5085435;28;20047;-43
2021/04/30 11:38:19;;;;;;;1.98;1.88;;;22.60;47.70;;;;;;5088348;28;20510;-41
2021/04/30 11:40:57;;;;;;;2.35;1.67;;;22.80;47.90;;;;;;5090326;28;20709;-42
2021/04/30 11:43:23;;;;;;;4.30;1.80;;;22.80;47.30;;;;;;5080854;28;20134;-43
2021/04/30 11:45:51;;;;;;;1.60;1.50;;;22.80;47.20;;;;;;5088872;28;20155;-41
2021/04/30 11:48:21;;;;;;;1.48;1.38;;;22.80;47.40;;;;;;5092676;28;20047;-41
2021/04/30 11:51:07;;;;;;;1.52;1.40;;;22.70;47.80;;;;;;5089977;28;20468;-38
2021/04/30 11:53:34;;;;;;;1.40;1.27;;;22.70;48.20;;;;;;5089968;28;20048;-40
2021/04/30 11:56:00;;;;;;;1.40;1.30;;;22.90;48.00;;;;;;5083042;28;20076;-41
2021/04/30 11:58:42;;;;;;;2.58;1.35;;;23.00;48.10;;;;;;5076204;28;20056;-41
2021/04/30 12:01:09;;;;;;;1.90;1.58;;;23.10;47.00;;;;;;5073484;28;20410;-42
2021/04/30 12:03:45;;;;;;;3.72;1.35;;;23.10;46.60;;;;;;5084763;28;20081;-41
2021/04/30 12:06:15;;;;;;;1.70;1.52;;;23.10;46.50;;;;;;5081779;28;20044;-42
2021/04/30 12:08:45;;;;;;;1.60;1.40;;;23.10;46.50;;;;;;5093223;28;20408;-42
2021/04/30 12:11:31;;;;;;;2.45;1.20;;;23.20;46.70;;;;;;5100213;28;20094;-44
2021/04/30 12:14:07;;;;;;;1.42;0.88;;;23.10;46.50;;;;;;5081324;28;20505;-40
2021/04/30 12:16:33;;;;;;;1.40;1.30;;;23.10;46.00;;;;;;5093947;28;20121;-42
2021/04/30 12:18:59;;;;;;;1.48;1.00;;;23.10;46.00;;;;;;5093899;28;20048;-42
2021/04/30 12:21:29;;;;;;;1.25;1.15;;;23.10;46.10;;;;;;5082731;28;20502;-40
2021/04/30 12:23:55;;;;;;;1.27;1.00;;;23.10;46.00;;;;;;5078870;28;20204;-41
2021/04/30 12:26:27;;;;;;;1.33;1.15;;;23.10;45.80;;;;;;5076108;28;20565;-40
2021/04/30 12:28:55;;;;;;;1.20;1.10;;;23.10;46.00;;;;;;5092652;28;20063;-43
2021/04/30 12:31:20;;;;;;;1.15;1.00;;;23.10;45.80;;;;;;5102363;28;20047;-44
2021/04/30 12:33:47;;;;;;;1.80;0.98;;;23.10;45.90;;;;;;5099114;28;20559;-41
2021/04/30 12:36:24;;;;;;;0.95;0.93;;;23.20;45.50;;;;;;5094163;28;20525;-41
2021/04/30 12:38:54;;;;;;;1.02;1.00;;;23.10;45.80;;;;;;5083669;28;20051;-43
2021/04/30 12:41:26;;;;;;;1.73;0.88;;;23.10;45.50;;;;;;5083320;28;20039;-43
2021/04/30 12:43:58;;;;;;;1.02;0.77;;;23.20;46.10;;;;;;5094438;28;20118;-45
2021/04/30 12:46:25;;;;;;;1.23;0.90;;;23.30;45.40;;;;;;5086645;28;20129;-40
2021/04/30 12:49:12;;;;;;;0.85;0.75;;;23.20;45.40;;;;;;5088588;28;20531;-40
2021/04/30 12:51:42;;;;;;;1.20;1.10;;;23.30;45.40;;;;;;5095622;28;20088;-40
2021/04/30 12:54:08;;;;;;;0.95;0.95;;;23.30;44.90;;;;;;5080260;28;20165;-41